Time;durP1;ratioP1;P1;durP2;ratioP2;P2;SDS_P1;SDS_P2;PMS_P1;PMS_P2;Temp;Humidity;BMP_temperature;BMP_pressure;BME280_temperature;BME280_humidity;BME280_pressure;Samples;Min_cycle;Max_cycle;Signal;HPM_P1;HPM_P2
2022/08/21 00:00:22;;;;;;;1016.13;927.42;;;22.40;99.90;;;;;;5048604;28;20236;-79
2022/08/21 00:02:51;;;;;;;1007.45;919.08;;;22.30;99.90;;;;;;5050539;28;20195;-79
2022/08/21 00:05:20;;;;;;;997.13;909.17;;;22.30;99.90;;;;;;5033550;28;20199;-80
2022/08/21 00:07:47;;;;;;;1007.08;918.83;;;22.40;99.90;;;;;;5047315;28;20202;-80
2022/08/21 00:10:15;;;;;;;1000.58;912.30;;;22.30;99.90;;;;;;5046347;28;20223;-80
2022/08/21 00:12:42;;;;;;;1002.33;914.38;;;22.30;99.90;;;;;;5050548;28;20195;-80
2022/08/21 00:15:12;;;;;;;1012.22;923.90;;;22.30;99.90;;;;;;5040940;28;20209;-79
2022/08/21 00:17:39;;;;;;;999.88;911.90;;;22.30;99.90;;;;;;5045667;28;20199;-79
2022/08/21 00:20:09;;;;;;;998.28;910.35;;;22.30;99.90;;;;;;5041101;28;20223;-80
2022/08/21 00:22:38;;;;;;;1002.92;914.85;;;22.30;99.90;;;;;;5045533;28;20637;-79
2022/08/21 00:25:07;;;;;;;1005.40;917.22;;;22.20;99.90;;;;;;5044355;28;20556;-79
2022/08/21 00:27:34;;;;;;;997.50;909.45;;;22.20;99.90;;;;;;5044734;28;20567;-80
2022/08/21 00:30:01;;;;;;;992.25;904.45;;;22.20;99.90;;;;;;5046705;28;20682;-79
2022/08/21 00:32:28;;;;;;;998.60;910.50;;;22.20;99.90;;;;;;5047960;28;20198;-80
2022/08/21 00:34:55;;;;;;;1002.95;914.90;;;22.20;99.90;;;;;;5042757;28;20203;-80
2022/08/21 00:37:23;;;;;;;1002.28;914.22;;;22.20;99.90;;;;;;5052105;28;20195;-80
2022/08/21 00:39:51;;;;;;;999.92;911.78;;;22.10;99.90;;;;;;5037284;28;20196;-80
2022/08/21 00:42:19;;;;;;;999.70;911.67;;;22.20;99.90;;;;;;5048051;28;20324;-80
2022/08/21 00:44:48;;;;;;;1006.30;917.95;;;22.10;99.90;;;;;;5050647;28;20206;-80
2022/08/21 00:47:15;;;;;;;983.78;896.30;;;22.10;99.90;;;;;;5049987;28;20650;-80
2022/08/21 00:49:42;;;;;;;998.97;911.17;;;22.10;99.90;;;;;;5047404;28;20223;-80
2022/08/21 00:52:15;;;;;;;987.85;900.38;;;22.10;99.90;;;;;;5046551;28;20207;-80
2022/08/21 00:54:42;;;;;;;992.10;904.38;;;22.10;99.90;;;;;;5039468;28;20575;-79
2022/08/21 00:57:15;;;;;;;993.50;905.53;;;22.10;99.90;;;;;;5044985;28;20839;-80
2022/08/21 00:59:46;;;;;;;999.97;911.90;;;22.10;99.90;;;;;;5047849;28;20195;-79
2022/08/21 01:02:13;;;;;;;980.40;893.08;;;22.00;99.90;;;;;;5048354;28;20206;-79
2022/08/21 01:04:40;;;;;;;988.30;900.42;;;22.00;99.90;;;;;;5044181;28;20199;-79
2022/08/21 01:07:07;;;;;;;994.00;906.10;;;22.00;99.90;;;;;;5041475;28;20525;-79
2022/08/21 01:09:35;;;;;;;998.17;909.67;;;22.00;99.90;;;;;;5049855;28;20265;-79
2022/08/21 01:12:02;;;;;;;998.80;910.75;;;22.00;99.90;;;;;;5039995;28;20214;-79
2022/08/21 01:14:31;;;;;;;993.72;905.92;;;22.00;99.90;;;;;;5037834;28;20225;-79
2022/08/21 01:17:00;;;;;;;989.85;901.78;;;21.90;99.90;;;;;;5047424;28;20198;-80
2022/08/21 01:19:27;;;;;;;990.25;902.33;;;22.00;99.90;;;;;;5045712;28;20241;-80
2022/08/21 01:21:55;;;;;;;993.30;905.55;;;21.90;99.90;;;;;;5047726;28;20207;-80
2022/08/21 01:24:22;;;;;;;994.38;906.78;;;21.90;99.90;;;;;;5040810;28;20199;-79
2022/08/21 01:26:51;;;;;;;991.97;904.08;;;21.90;99.90;;;;;;5041054;28;20199;-79
2022/08/21 01:29:36;;;;;;;977.60;890.22;;;21.90;99.90;;;;;;5045399;28;20224;-80
2022/08/21 01:32:07;;;;;;;969.95;882.78;;;21.90;99.90;;;;;;5045880;28;20570;-79
2022/08/21 01:34:36;;;;;;;976.20;888.83;;;21.90;99.90;;;;;;5039708;28;20683;-79
2022/08/21 01:37:04;;;;;;;974.67;887.47;;;21.80;99.90;;;;;;5049938;28;20210;-79
2022/08/21 01:39:31;;;;;;;984.83;897.15;;;21.80;99.90;;;;;;5045255;28;20198;-79
2022/08/21 01:41:58;;;;;;;995.15;907.05;;;21.80;99.90;;;;;;5048548;28;20203;-79
2022/08/21 01:44:25;;;;;;;987.33;899.50;;;21.80;99.90;;;;;;5043940;28;20203;-80
2022/08/21 01:46:53;;;;;;;985.10;897.55;;;21.80;99.90;;;;;;5042352;28;20203;-79
2022/08/21 01:49:20;;;;;;;975.17;888.00;;;21.80;99.90;;;;;;5047326;28;20230;-79
2022/08/21 01:51:47;;;;;;;993.80;905.92;;;21.80;99.90;;;;;;5047935;28;20227;-79
2022/08/21 01:54:15;;;;;;;975.25;887.80;;;21.80;99.90;;;;;;5047363;28;20676;-79
2022/08/21 01:56:45;;;;;;;992.15;904.55;;;21.80;99.90;;;;;;5049722;28;20199;-79
2022/08/21 01:59:12;;;;;;;986.92;899.25;;;21.80;99.90;;;;;;5044443;28;20199;-79
2022/08/21 02:01:40;;;;;;;973.67;886.55;;;21.70;99.90;;;;;;5036865;28;20207;-79
2022/08/21 02:04:07;;;;;;;986.78;898.97;;;21.70;99.90;;;;;;5047619;28;20555;-79
2022/08/21 02:06:35;;;;;;;987.10;899.20;;;21.70;99.90;;;;;;5035361;28;20675;-80
2022/08/21 02:09:06;;;;;;;975.05;887.85;;;21.70;99.90;;;;;;5040848;28;20272;-80
2022/08/21 02:11:34;;;;;;;982.85;895.38;;;21.70;99.90;;;;;;5049869;28;20197;-79
2022/08/21 02:14:01;;;;;;;976.33;888.95;;;21.70;99.90;;;;;;5045055;28;20192;-80
2022/08/21 02:16:28;;;;;;;985.50;897.42;;;21.70;99.90;;;;;;5041908;28;20654;-79
2022/08/21 02:18:54;;;;;;;969.38;882.15;;;21.70;99.90;;;;;;5047603;28;20305;-79
2022/08/21 02:21:23;;;;;;;979.35;892.08;;;21.70;99.90;;;;;;5046244;28;20207;-80
2022/08/21 02:23:50;;;;;;;981.20;893.70;;;21.60;99.90;;;;;;5041327;28;20214;-79
2022/08/21 02:26:17;;;;;;;984.97;897.47;;;21.60;99.90;;;;;;5048948;28;20199;-80
2022/08/21 02:28:45;;;;;;;968.17;881.15;;;21.60;99.90;;;;;;5042775;28;20557;-79
2022/08/21 02:31:12;;;;;;;968.65;881.53;;;21.60;99.90;;;;;;5048950;28;20226;-79
2022/08/21 02:33:39;;;;;;;976.15;888.55;;;21.60;99.90;;;;;;5044623;28;20203;-80
2022/08/21 02:36:07;;;;;;;979.85;892.30;;;21.60;99.90;;;;;;5040628;28;20206;-79
2022/08/21 02:38:38;;;;;;;973.92;886.65;;;21.60;99.90;;;;;;5052354;28;20195;-79
2022/08/21 02:41:05;;;;;;;982.25;894.58;;;21.60;99.90;;;;;;5052541;28;20278;-80
2022/08/21 02:43:32;;;;;;;968.35;881.10;;;21.50;99.90;;;;;;5049697;28;20676;-79
2022/08/21 02:46:00;;;;;;;971.92;884.83;;;21.50;99.90;;;;;;5048224;28;20195;-79
2022/08/21 02:48:30;;;;;;;985.60;897.72;;;21.50;99.90;;;;;;5054673;28;20553;-78
2022/08/21 02:50:59;;;;;;;973.08;885.78;;;21.50;99.90;;;;;;5038532;28;20230;-79
2022/08/21 02:53:26;;;;;;;979.47;891.70;;;21.50;99.90;;;;;;5041224;28;20207;-79
2022/08/21 02:55:54;;;;;;;980.38;892.78;;;21.50;99.90;;;;;;5051977;28;20211;-79
2022/08/21 02:58:27;;;;;;;966.75;879.35;;;21.50;99.90;;;;;;5043679;28;20658;-80
2022/08/21 03:00:54;;;;;;;979.13;891.25;;;21.40;99.90;;;;;;5039445;28;20204;-80
2022/08/21 03:03:22;;;;;;;969.70;882.13;;;21.40;99.90;;;;;;5046149;28;20651;-80
2022/08/21 03:05:49;;;;;;;964.25;877.10;;;21.40;99.90;;;;;;5049316;28;20199;-80
2022/08/21 03:08:16;;;;;;;962.35;875.47;;;21.40;99.90;;;;;;5037366;28;20313;-79
2022/08/21 03:10:46;;;;;;;970.50;882.88;;;21.40;99.90;;;;;;5042401;28;20219;-79
2022/08/21 03:13:13;;;;;;;974.38;886.88;;;21.40;99.90;;;;;;5043368;28;20654;-79
2022/08/21 03:15:41;;;;;;;962.58;875.50;;;21.30;99.90;;;;;;5049220;28;20577;-79
2022/08/21 03:18:09;;;;;;;970.03;882.70;;;21.30;99.90;;;;;;5046037;28;20191;-79
2022/08/21 03:20:38;;;;;;;960.70;873.40;;;21.30;99.90;;;;;;5042826;28;20690;-78
2022/08/21 03:23:06;;;;;;;974.35;886.53;;;21.30;99.90;;;;;;5041304;28;20666;-79
2022/08/21 03:25:34;;;;;;;971.50;884.20;;;21.30;99.90;;;;;;5052255;28;20199;-79
2022/08/21 03:28:01;;;;;;;977.15;889.45;;;21.30;99.90;;;;;;5046085;28;20203;-79
2022/08/21 03:30:30;;;;;;;955.80;869.05;;;21.30;99.90;;;;;;5049152;28;20215;-79
2022/08/21 03:32:58;;;;;;;957.97;870.95;;;21.30;99.90;;;;;;5043706;28;20693;-79
2022/08/21 03:35:25;;;;;;;969.42;881.97;;;21.20;99.90;;;;;;5047126;28;20731;-78
2022/08/21 03:37:53;;;;;;;951.97;865.05;;;21.20;99.90;;;;;;5050318;28;20642;-79
2022/08/21 03:40:21;;;;;;;952.95;866.00;;;21.20;99.90;;;;;;5053205;28;20191;-79
2022/08/21 03:42:48;;;;;;;951.60;864.70;;;21.10;99.90;;;;;;5045391;28;20235;-79
2022/08/21 03:45:17;;;;;;;968.08;880.47;;;21.20;99.90;;;;;;5046174;28;20210;-79
2022/08/21 03:47:52;;;;;;;950.95;864.25;;;21.20;99.90;;;;;;5049224;28;20202;-80
2022/08/21 03:50:19;;;;;;;956.13;869.33;;;21.20;99.90;;;;;;5048581;28;20229;-80
2022/08/21 03:52:46;;;;;;;962.08;875.08;;;21.10;99.90;;;;;;5043261;28;20203;-80
2022/08/21 03:55:14;;;;;;;951.10;864.20;;;21.10;99.90;;;;;;5044935;28;20215;-79
2022/08/21 03:57:41;;;;;;;946.72;860.05;;;21.10;99.90;;;;;;5045385;28;20203;-79
2022/08/21 04:00:10;;;;;;;956.78;869.80;;;21.10;99.90;;;;;;5044748;28;20278;-79
2022/08/21 04:02:37;;;;;;;948.45;861.78;;;21.10;99.90;;;;;;5043456;28;20717;-79
2022/08/21 04:05:04;;;;;;;949.50;862.67;;;21.10;99.90;;;;;;5045277;28;20195;-79
2022/08/21 04:07:31;;;;;;;957.28;870.20;;;21.00;99.90;;;;;;5048441;28;20206;-79
2022/08/21 04:09:57;;;;;;;955.17;868.20;;;21.00;99.90;;;;;;5047628;28;20202;-79
2022/08/21 04:12:25;;;;;;;962.75;875.40;;;21.00;99.90;;;;;;5035989;28;20567;-79
2022/08/21 04:14:52;;;;;;;942.30;855.85;;;21.00;99.90;;;;;;5039485;28;20207;-79
2022/08/21 04:17:19;;;;;;;952.72;865.97;;;21.00;99.90;;;;;;5048904;28;20206;-80
2022/08/21 04:19:46;;;;;;;943.75;857.05;;;21.00;99.90;;;;;;5046976;28;20586;-80
2022/08/21 04:22:13;;;;;;;956.75;869.67;;;20.90;99.90;;;;;;5048099;28;20195;-79
2022/08/21 04:24:40;;;;;;;951.95;865.03;;;20.90;99.90;;;;;;5047350;28;20202;-80
2022/08/21 04:27:06;;;;;;;938.53;852.25;;;20.90;99.90;;;;;;5047232;28;20199;-79
2022/08/21 04:29:34;;;;;;;950.33;863.60;;;20.90;99.90;;;;;;5047584;28;20670;-79
2022/08/21 04:32:01;;;;;;;950.55;863.85;;;20.90;99.90;;;;;;5042373;28;20215;-79
2022/08/21 04:34:28;;;;;;;960.00;872.95;;;20.90;99.90;;;;;;5038615;28;20699;-80
2022/08/21 04:36:54;;;;;;;951.83;865.35;;;20.90;99.90;;;;;;5048655;28;20218;-79
2022/08/21 04:39:21;;;;;;;943.67;856.90;;;20.90;99.90;;;;;;5048367;28;20199;-80
2022/08/21 04:41:48;;;;;;;964.35;877.30;;;20.80;99.90;;;;;;5049224;28;20218;-79
2022/08/21 04:44:15;;;;;;;938.88;852.40;;;20.80;99.90;;;;;;5036722;28;20195;-79
2022/08/21 04:46:43;;;;;;;943.30;856.72;;;20.80;99.90;;;;;;5039054;28;20200;-79
2022/08/21 04:49:10;;;;;;;941.70;855.22;;;20.80;99.90;;;;;;5039064;28;20199;-80
2022/08/21 04:51:39;;;;;;;944.08;857.50;;;20.80;99.90;;;;;;5045966;28;20716;-79
2022/08/21 04:54:11;;;;;;;926.60;840.33;;;20.80;99.90;;;;;;5046671;28;20646;-79
2022/08/21 04:56:42;;;;;;;952.60;865.70;;;20.80;99.90;;;;;;5050896;28;20665;-80
2022/08/21 04:59:14;;;;;;;936.78;850.40;;;20.80;99.90;;;;;;5040921;28;20210;-79
2022/08/21 05:01:43;;;;;;;935.65;849.47;;;20.80;99.90;;;;;;5041448;28;20226;-79
2022/08/21 05:04:13;;;;;;;936.63;850.35;;;20.80;99.90;;;;;;5051814;28;20195;-80
2022/08/21 05:06:42;;;;;;;948.17;861.42;;;20.80;99.90;;;;;;5042059;28;20210;-80
2022/08/21 05:09:13;;;;;;;948.78;862.00;;;20.80;99.90;;;;;;5049021;28;20245;-80
2022/08/21 05:11:40;;;;;;;933.25;847.03;;;20.80;99.90;;;;;;5046310;28;20706;-80
2022/08/21 05:14:07;;;;;;;933.90;847.63;;;20.70;99.90;;;;;;5042482;28;20248;-79
2022/08/21 05:16:34;;;;;;;930.30;844.13;;;20.70;99.90;;;;;;5042156;28;20207;-80
2022/08/21 05:19:02;;;;;;;936.63;850.35;;;20.70;99.90;;;;;;5034456;28;20211;-80
2022/08/21 05:21:29;;;;;;;938.38;852.15;;;20.70;99.90;;;;;;5040870;28;20191;-80
2022/08/21 05:23:55;;;;;;;934.90;848.55;;;20.70;99.90;;;;;;5045392;28;20721;-80
2022/08/21 05:26:22;;;;;;;923.83;837.92;;;20.70;99.90;;;;;;5045681;28;20201;-80
2022/08/21 05:28:49;;;;;;;937.92;851.13;;;20.70;99.90;;;;;;5045169;28;20198;-80
2022/08/21 05:31:15;;;;;;;936.60;850.45;;;20.70;99.90;;;;;;5044217;28;20211;-80
2022/08/21 05:33:42;;;;;;;937.17;851.13;;;20.70;99.90;;;;;;5043839;28;20192;-80
2022/08/21 05:36:10;;;;;;;951.78;865.05;;;20.70;99.90;;;;;;5039838;28;20282;-80
2022/08/21 05:38:37;;;;;;;943.28;856.78;;;20.70;99.90;;;;;;5049829;28;20575;-80
2022/08/21 05:41:03;;;;;;;929.22;843.20;;;20.70;99.90;;;;;;5048795;28;20205;-80
2022/08/21 05:43:32;;;;;;;929.45;843.67;;;20.70;99.90;;;;;;5042579;28;20208;-80
2022/08/21 05:45:59;;;;;;;941.38;855.17;;;20.70;99.90;;;;;;5039693;28;20209;-80
2022/08/21 05:48:26;;;;;;;939.47;853.28;;;20.70;99.90;;;;;;5042516;28;20223;-80
2022/08/21 05:50:54;;;;;;;945.15;858.65;;;20.70;99.90;;;;;;5037994;28;20709;-80
2022/08/21 05:53:24;;;;;;;938.40;852.33;;;20.80;99.90;;;;;;5042378;28;20208;-80
2022/08/21 05:55:51;;;;;;;943.05;856.50;;;20.80;99.90;;;;;;5046773;28;20289;-80
2022/08/21 05:58:21;;;;;;;965.08;878.10;;;21.10;99.90;;;;;;5041327;28;20202;-80
2022/08/21 06:00:49;;;;;;;957.88;870.97;;;21.30;99.90;;;;;;5042321;28;20188;-79
2022/08/21 06:03:18;;;;;;;966.83;879.42;;;21.50;99.90;;;;;;5040256;28;20206;-80
2022/08/21 06:05:45;;;;;;;987.70;899.72;;;21.80;99.90;;;;;;5041617;28;20211;-80
2022/08/21 06:08:12;;;;;;;987.92;899.92;;;22.00;99.90;;;;;;5037729;28;20199;-80
2022/08/21 06:10:40;;;;;;;1004.10;915.63;;;22.30;99.90;;;;;;5043980;28;20199;-80
2022/08/21 06:13:07;;;;;;;1002.45;913.92;;;22.50;99.90;;;;;;5044556;28;20207;-80
2022/08/21 06:15:34;;;;;;;1018.10;929.03;;;22.60;99.90;;;;;;5054951;28;20207;-80
2022/08/21 06:18:00;;;;;;;1028.88;939.78;;;22.80;99.90;;;;;;5054655;28;20199;-81
2022/08/21 06:20:28;;;;;;;1013.80;925.15;;;23.00;99.90;;;;;;5040546;28;20219;-81
2022/08/21 06:22:54;;;;;;;1012.08;923.45;;;23.10;99.90;;;;;;5045367;28;20212;-81
2022/08/21 06:25:21;;;;;;;1036.20;946.90;;;23.20;99.90;;;;;;5055534;28;20217;-80
2022/08/21 06:27:49;;;;;;;1029.95;940.83;;;23.30;99.90;;;;;;5053799;28;20199;-81
2022/08/21 06:30:16;;;;;;;1054.78;964.58;;;23.50;99.90;;;;;;5058816;28;20199;-79
2022/08/21 06:32:43;;;;;;;1051.53;961.70;;;23.50;99.90;;;;;;5054996;28;20585;-80
2022/08/21 06:35:11;;;;;;;1049.20;959.53;;;23.70;99.90;;;;;;5049741;28;20199;-77
2022/08/21 06:37:38;;;;;;;1053.70;963.75;;;23.70;99.90;;;;;;5049792;28;20650;-81
2022/08/21 06:40:05;;;;;;;1045.13;955.40;;;23.90;99.90;;;;;;5047965;28;20314;-80
2022/08/21 06:42:32;;;;;;;1063.33;973.17;;;23.90;99.90;;;;;;5037805;28;20214;-80
2022/08/21 06:45:00;;;;;;;1062.00;971.80;;;24.00;99.90;;;;;;5044530;28;20955;-80
2022/08/21 06:47:27;;;;;;;1066.70;976.38;;;24.10;99.90;;;;;;5041039;28;20461;-80
2022/08/21 06:49:54;;;;;;;1062.30;972.10;;;24.20;99.90;;;;;;5043081;28;20199;-80
2022/08/21 06:52:20;;;;;;;1058.77;968.73;;;24.30;99.90;;;;;;5041122;28;20481;-79
2022/08/21 06:54:47;;;;;;;1076.67;986.27;;;24.30;99.90;;;;;;5040760;28;20446;-80
2022/08/21 06:57:14;;;;;;;1058.20;968.27;;;24.40;99.90;;;;;;5044324;28;20445;-80
2022/08/21 06:59:40;;;;;;;1064.83;974.70;;;24.50;99.90;;;;;;5045676;28;20546;-80
2022/08/21 07:02:09;;;;;;;1075.13;984.63;;;24.50;99.90;;;;;;5048924;28;20794;-80
2022/08/21 07:04:35;;;;;;;1084.13;993.23;;;24.60;99.90;;;;;;5043358;28;20976;-80
2022/08/21 07:07:02;;;;;;;1072.40;981.80;;;24.70;99.90;;;;;;5038276;28;20445;-79
2022/08/21 07:09:29;;;;;;;1085.43;994.07;;;24.70;99.90;;;;;;5045798;28;20449;-80
2022/08/21 07:11:57;;;;;;;1072.47;981.97;;;24.80;99.90;;;;;;5043089;28;20476;-80
2022/08/21 07:14:24;;;;;;;1086.40;994.03;;;24.90;99.90;;;;;;5042626;28;21027;-80
2022/08/21 07:16:51;;;;;;;1097.53;999.80;;;24.90;99.90;;;;;;5039609;28;20439;-80
2022/08/21 07:19:20;;;;;;;1085.93;994.27;;;25.00;99.90;;;;;;5042406;28;20957;-80
2022/08/21 07:21:47;;;;;;;1097.70;999.90;;;25.00;99.90;;;;;;5045067;28;20465;-79
2022/08/21 07:24:14;;;;;;;1107.27;999.90;;;25.10;99.90;;;;;;5041730;28;20495;-79
2022/08/21 07:26:41;;;;;;;1099.67;999.90;;;25.10;99.90;;;;;;5043489;28;20442;-80
2022/08/21 07:29:08;;;;;;;1093.97;998.37;;;25.20;99.90;;;;;;5043186;28;20461;-79
2022/08/21 07:31:35;;;;;;;1099.77;999.90;;;25.30;99.90;;;;;;5038175;28;20476;-79
2022/08/21 07:34:03;;;;;;;1099.67;999.90;;;25.30;99.90;;;;;;5042307;28;20447;-80
2022/08/21 07:36:31;;;;;;;1097.43;999.67;;;25.40;99.90;;;;;;5041334;28;20466;-81
2022/08/21 07:38:58;;;;;;;1108.47;999.90;;;25.50;99.90;;;;;;5041144;28;20486;-81
2022/08/21 07:41:28;;;;;;;1110.83;999.90;;;25.50;99.90;;;;;;5042995;28;20449;-81
2022/08/21 07:43:55;;;;;;;1103.47;999.90;;;25.50;99.90;;;;;;5035611;28;20554;-81
2022/08/21 07:46:22;;;;;;;1104.00;999.90;;;25.60;99.90;;;;;;5045830;28;20469;-82
2022/08/21 07:48:48;;;;;;;1107.93;999.90;;;25.60;99.90;;;;;;5044071;28;20460;-80
2022/08/21 07:51:17;;;;;;;1118.47;999.90;;;25.60;99.90;;;;;;5049316;28;20481;-80
2022/08/21 07:53:50;;;;;;;1102.90;999.90;;;25.70;99.90;;;;;;5046922;28;20969;-79
2022/08/21 07:56:17;;;;;;;1110.73;999.90;;;25.70;99.90;;;;;;5036026;28;20480;-78
2022/08/21 07:58:44;;;;;;;1126.17;999.90;;;25.70;99.90;;;;;;5032892;28;20460;-81
2022/08/21 08:01:11;;;;;;;1121.77;999.90;;;25.70;99.90;;;;;;5046200;28;20468;-84
2022/08/21 08:03:38;;;;;;;1114.67;999.90;;;25.80;99.90;;;;;;5052561;28;20457;-86
2022/08/21 08:06:06;;;;;;;1112.60;999.90;;;25.80;99.90;;;;;;5048592;28;20552;-88
2022/08/21 08:08:33;;;;;;;1116.70;999.90;;;25.80;99.90;;;;;;5043319;28;20464;-87
2022/08/21 08:11:02;;;;;;;1119.83;999.90;;;25.80;99.90;;;;;;5043576;28;20461;-86
2022/08/21 08:13:29;;;;;;;1117.67;999.90;;;25.90;99.90;;;;;;5039492;28;20581;-85
2022/08/21 08:15:55;;;;;;;1124.80;999.90;;;25.90;99.90;;;;;;5047383;28;20454;-87
2022/08/21 08:18:22;;;;;;;1123.87;999.90;;;25.90;99.90;;;;;;5047313;28;20462;-87
2022/08/21 08:20:49;;;;;;;1127.53;999.90;;;25.90;99.90;;;;;;5038811;28;20462;-84
2022/08/21 08:23:16;;;;;;;1126.43;999.90;;;26.00;99.90;;;;;;5042660;28;20449;-87
2022/08/21 08:25:43;;;;;;;1116.90;999.90;;;26.00;99.90;;;;;;5041711;28;20799;-86
2022/08/21 08:28:11;;;;;;;1116.40;999.90;;;26.00;99.90;;;;;;5052555;28;20458;-83
2022/08/21 08:30:37;;;;;;;1135.90;999.90;;;26.10;99.90;;;;;;5044114;28;20525;-85
2022/08/21 08:33:04;;;;;;;1118.10;999.90;;;26.00;99.90;;;;;;5045686;28;20983;-86
2022/08/21 08:35:31;;;;;;;1125.13;999.90;;;26.10;99.90;;;;;;5040994;28;20450;-84
2022/08/21 08:37:58;;;;;;;1114.83;999.90;;;26.00;99.90;;;;;;5042820;28;20435;-85
2022/08/21 08:40:36;;;;;;;1122.00;999.90;;;26.00;99.90;;;;;;5034502;28;20458;-84
2022/08/21 08:43:05;;;;;;;1126.43;999.90;;;26.10;99.90;;;;;;5042127;28;20461;-85
2022/08/21 08:45:40;;;;;;;1120.73;999.90;;;26.10;99.90;;;;;;5046570;28;20461;-85
2022/08/21 08:48:11;;;;;;;1129.80;999.90;;;26.10;99.90;;;;;;5044710;28;20445;-85
2022/08/21 08:50:44;;;;;;;1117.70;999.90;;;26.20;99.90;;;;;;5043587;28;20954;-85
2022/08/21 08:53:15;;;;;;;1136.50;999.90;;;26.10;99.90;;;;;;5047532;28;20942;-85
2022/08/21 08:55:44;;;;;;;1134.47;999.90;;;26.10;99.90;;;;;;5051534;28;20441;-84
2022/08/21 08:58:24;;;;;;;1120.87;999.90;;;26.10;99.90;;;;;;5047532;28;20493;-86
2022/08/21 09:00:55;;;;;;;1128.43;999.90;;;26.00;99.90;;;;;;5046497;28;20550;-86
2022/08/21 09:03:23;;;;;;;1122.13;999.90;;;26.00;99.90;;;;;;5050984;28;20445;-86
2022/08/21 09:06:00;;;;;;;1124.53;999.90;;;25.90;99.90;;;;;;5037306;28;20502;-87
2022/08/21 09:08:42;;;;;;;1119.13;999.90;;;25.90;99.90;;;;;;5041497;28;20453;-86
2022/08/21 09:11:15;;;;;;;1119.43;999.90;;;25.80;99.90;;;;;;5043465;28;20468;-86
2022/08/21 09:13:51;;;;;;;1106.73;999.90;;;25.70;99.90;;;;;;5045361;28;20985;-85
2022/08/21 09:16:26;;;;;;;1123.20;999.90;;;25.60;99.90;;;;;;5041670;28;20453;-85
2022/08/21 09:19:00;;;;;;;1112.37;999.90;;;25.50;99.90;;;;;;5045084;28;20451;-85
2022/08/21 09:21:35;;;;;;;1100.27;999.90;;;25.40;99.90;;;;;;5039917;28;20806;-84
2022/08/21 09:24:19;;;;;;;1106.33;999.90;;;25.30;99.90;;;;;;5041411;28;20536;-85
2022/08/21 09:26:52;;;;;;;1111.50;999.90;;;25.40;99.90;;;;;;5042440;28;20536;-86
2022/08/21 09:29:24;;;;;;;1103.23;999.90;;;25.50;99.90;;;;;;5049811;28;20458;-86
2022/08/21 09:31:53;;;;;;;1112.03;999.90;;;25.50;99.90;;;;;;5042837;28;20464;-86
2022/08/21 09:34:27;;;;;;;1111.13;999.90;;;25.60;99.90;;;;;;5046907;28;20497;-86
2022/08/21 09:36:54;;;;;;;1100.87;999.90;;;25.60;99.90;;;;;;5038435;28;20453;-87
2022/08/21 09:39:25;;;;;;;1114.40;999.90;;;25.70;99.90;;;;;;5045799;28;20472;-85
2022/08/21 09:41:58;;;;;;;1116.93;999.90;;;25.70;99.90;;;;;;5037283;28;20454;-85
2022/08/21 09:44:27;;;;;;;1108.83;999.90;;;25.70;99.90;;;;;;5035981;28;20454;-84
2022/08/21 09:46:55;;;;;;;1119.13;999.90;;;25.70;99.90;;;;;;5046834;28;20462;-84
2022/08/21 09:49:30;;;;;;;1106.57;999.90;;;25.70;99.90;;;;;;5049184;28;20532;-85
2022/08/21 09:51:58;;;;;;;1109.60;999.90;;;25.70;99.90;;;;;;5041022;28;20500;-86
2022/08/21 09:54:29;;;;;;;1119.93;999.90;;;25.70;99.90;;;;;;5038279;28;20912;-83
2022/08/21 09:59:46;;;;;;;1105.57;999.90;;;25.70;99.90;;;;;;5041477;28;20440;-87
2022/08/21 10:02:29;;;;;;;1115.27;999.90;;;25.70;99.90;;;;;;5046695;28;20504;-85
2022/08/21 10:04:59;;;;;;;1117.60;999.90;;;25.60;99.90;;;;;;5037978;28;20462;-88
2022/08/21 10:07:29;;;;;;;1106.03;999.90;;;25.60;99.90;;;;;;5050262;28;20476;-82
2022/08/21 10:10:00;;;;;;;1105.10;999.90;;;25.60;99.90;;;;;;5043078;28;20464;-84
2022/08/21 10:12:34;;;;;;;1108.50;999.90;;;25.60;99.90;;;;;;5043773;28;20476;-85
2022/08/21 10:15:08;;;;;;;1107.43;999.90;;;25.50;99.90;;;;;;5039395;28;20467;-84
2022/08/21 10:17:44;;;;;;;1114.00;999.90;;;25.50;99.90;;;;;;5048609;28;20468;-83
2022/08/21 10:20:18;;;;;;;1121.17;999.90;;;25.50;99.90;;;;;;5038543;28;20477;-83
2022/08/21 10:23:07;;;;;;;1110.93;999.90;;;25.50;99.90;;;;;;5045607;28;20454;-84
2022/08/21 10:25:42;;;;;;;1105.07;999.90;;;25.50;99.90;;;;;;5047047;28;20460;-82
2022/08/21 10:28:17;;;;;;;1101.30;999.90;;;25.50;99.90;;;;;;5033515;28;20418;-81
2022/08/21 10:30:49;;;;;;;1100.10;999.90;;;25.50;99.90;;;;;;5032938;28;20555;-84
2022/08/21 10:33:29;;;;;;;1112.67;999.90;;;25.50;99.90;;;;;;5036772;28;20464;-83
2022/08/21 10:36:03;;;;;;;1099.63;999.90;;;25.50;99.90;;;;;;5047185;28;20453;-80
2022/08/21 10:38:56;;;;;;;1097.97;999.90;;;25.40;99.90;;;;;;5049548;28;20564;-83
2022/08/21 10:41:32;;;;;;;1098.43;999.90;;;25.50;99.90;;;;;;5049290;28;20452;-82
2022/08/21 10:44:08;;;;;;;1102.63;999.90;;;25.50;99.90;;;;;;5031973;28;20443;-83
2022/08/21 10:46:43;;;;;;;1103.07;999.90;;;25.40;99.60;;;;;;5046501;28;20943;-82
2022/08/21 10:49:23;;;;;;;1095.70;999.10;;;25.50;99.90;;;;;;5043770;28;20425;-80
2022/08/21 10:51:57;;;;;;;1099.03;999.50;;;25.40;99.60;;;;;;5037086;28;20985;-82
2022/08/21 10:54:33;;;;;;;1102.87;999.90;;;25.40;99.50;;;;;;5040697;28;20456;-83
2022/08/21 10:57:04;;;;;;;1097.73;999.73;;;25.40;99.40;;;;;;5051092;28;20447;-82
2022/08/21 10:59:39;;;;;;;1103.30;999.90;;;25.40;99.30;;;;;;5045770;28;20458;-84
2022/08/21 11:02:16;;;;;;;1094.57;998.70;;;25.40;99.30;;;;;;5036418;28;20460;-82
2022/08/21 11:04:53;;;;;;;1102.87;999.90;;;25.30;99.30;;;;;;5047270;28;20833;-82
2022/08/21 11:07:26;;;;;;;1107.47;999.90;;;25.30;99.50;;;;;;5049620;28;20457;-83
2022/08/21 11:09:56;;;;;;;1094.57;998.63;;;25.30;99.50;;;;;;5048582;28;20483;-82
2022/08/21 11:12:28;;;;;;;1091.50;997.80;;;25.30;99.40;;;;;;5050703;28;20477;-83
2022/08/21 11:15:01;;;;;;;1096.13;998.50;;;25.20;99.40;;;;;;5039818;28;20466;-83
2022/08/21 11:17:34;;;;;;;1094.30;997.77;;;25.30;99.70;;;;;;5048322;28;20450;-80
2022/08/21 11:20:10;;;;;;;1095.97;999.20;;;25.20;99.60;;;;;;5041988;28;20477;-84
2022/08/21 11:22:44;;;;;;;1086.90;995.07;;;25.20;99.30;;;;;;5050391;28;20457;-82
2022/08/21 11:25:18;;;;;;;1105.33;999.90;;;25.20;99.60;;;;;;5051361;28;20460;-81
2022/08/21 11:27:51;;;;;;;1094.50;998.90;;;25.20;99.30;;;;;;5050488;28;20476;-83
2022/08/21 11:30:18;;;;;;;1093.20;997.60;;;25.20;99.40;;;;;;5042913;28;20458;-83
2022/08/21 11:33:02;;;;;;;1086.47;994.97;;;25.10;99.40;;;;;;5036899;28;20478;-83
2022/08/21 11:35:37;;;;;;;1099.20;999.90;;;25.20;99.40;;;;;;5045026;28;20551;-81
2022/08/21 11:38:17;;;;;;;1081.60;991.00;;;25.10;99.30;;;;;;5044923;28;21036;-82
2022/08/21 11:41:06;;;;;;;1092.50;998.13;;;25.10;99.30;;;;;;5036379;28;20458;-81
2022/08/21 11:43:39;;;;;;;1091.63;997.80;;;25.10;99.40;;;;;;5051937;28;20984;-81
2022/08/21 11:46:17;;;;;;;1097.20;999.23;;;25.20;99.40;;;;;;5049619;28;20470;-82
2022/08/21 11:48:49;;;;;;;1087.17;994.53;;;25.10;99.50;;;;;;5035443;28;20541;-83
2022/08/21 11:51:22;;;;;;;1081.83;991.13;;;25.10;99.40;;;;;;5046157;28;20503;-82
2022/08/21 11:53:54;;;;;;;1079.33;988.83;;;25.10;99.40;;;;;;5043727;28;20521;-80
2022/08/21 11:56:25;;;;;;;1083.27;992.77;;;25.10;99.40;;;;;;5043531;28;20468;-83
2022/08/21 11:58:56;;;;;;;1086.33;994.77;;;25.10;99.40;;;;;;5038231;28;20469;-83
2022/08/21 12:01:25;;;;;;;1093.77;998.53;;;25.10;99.20;;;;;;5037807;28;20457;-80
2022/08/21 12:03:56;;;;;;;1081.53;990.93;;;25.10;99.50;;;;;;5045925;28;20445;-82
2022/08/21 12:06:32;;;;;;;1080.40;990.00;;;25.10;99.20;;;;;;5048732;28;20504;-81
2022/08/21 12:09:01;;;;;;;1095.63;999.40;;;25.00;99.50;;;;;;5049087;28;20453;-83
2022/08/21 12:11:28;;;;;;;1084.87;993.93;;;25.00;99.40;;;;;;5046010;28;20549;-83
2022/08/21 12:13:58;;;;;;;1086.03;994.77;;;25.00;99.30;;;;;;5039615;28;20853;-81
2022/08/21 12:16:37;;;;;;;1080.83;990.33;;;25.00;99.00;;;;;;5050984;28;20464;-81